createdAt,value
2019-05-05T00:04:45.518Z,12.90
2019-05-05T00:09:51.597Z,13.43
2019-05-05T00:15:25.408Z,15.10
2019-05-05T00:20:31.631Z,18.35
2019-05-05T00:25:37.604Z,19.10
2019-05-05T00:30:44.865Z,17.20
2019-05-05T00:35:54.484Z,23.90
2019-05-05T00:41:00.550Z,15.13
2019-05-05T00:46:12.431Z,15.60
2019-05-05T00:51:18.485Z,17.87
2019-05-05T00:56:25.083Z,17.13
2019-05-05T01:01:48.489Z,18.50
2019-05-05T01:06:55.066Z,16.27
2019-05-05T01:12:01.122Z,20.53
2019-05-05T01:17:07.114Z,17.73
2019-05-05T01:22:14.442Z,14.63
2019-05-05T01:27:20.517Z,16.07
2019-05-05T01:32:30.819Z,22.27
2019-05-05T01:37:45.179Z,15.47
2019-05-05T01:42:51.218Z,18.83
2019-05-05T01:47:58.441Z,20.83
2019-05-05T01:53:05.047Z,16.70
2019-05-05T01:58:10.879Z,12.97
2019-05-05T02:03:16.758Z,15.67
2019-05-05T02:08:24.462Z,20.17
2019-05-05T02:13:30.234Z,11.47
2019-05-05T02:18:36.131Z,17.23
2019-05-05T02:23:42.085Z,22.13
2019-05-05T02:29:00.486Z,24.50
2019-05-05T02:34:06.529Z,24.47
2019-05-05T02:39:12.399Z,16.13
2019-05-05T02:44:18.878Z,19.77
2019-05-05T02:49:25.649Z,19.53
2019-05-05T02:54:33.904Z,25.93
2019-05-05T02:59:58.974Z,19.87
2019-05-05T03:05:05.310Z,19.33
2019-05-05T03:10:11.587Z,21.63
2019-05-05T03:15:25.554Z,18.97
2019-05-05T03:20:31.929Z,28.00
2019-05-05T03:25:38.642Z,19.33
2019-05-05T03:30:45.920Z,16.97
2019-05-05T03:35:54.018Z,17.47
2019-05-05T03:41:03.578Z,17.07
2019-05-05T03:46:09.875Z,16.03
2019-05-05T03:51:20.911Z,18.83
2019-05-05T03:56:24.318Z,20.47
2019-05-05T04:02:05.190Z,24.63
2019-05-05T04:07:11.480Z,18.60
2019-05-05T04:12:17.745Z,19.80
2019-05-05T04:17:45.338Z,18.07
2019-05-05T04:22:51.518Z,23.23
2019-05-05T04:27:57.797Z,22.17
2019-05-05T04:33:04.484Z,25.37
2019-05-05T04:38:10.464Z,25.97
2019-05-05T04:43:16.375Z,20.17
2019-05-05T04:48:27.944Z,16.97
2019-05-05T04:53:41.365Z,24.03
2019-05-05T04:58:47.340Z,21.07
2019-05-05T05:04:00.278Z,23.57
2019-05-05T05:09:07.270Z,18.83
2019-05-05T05:14:14.384Z,24.80
2019-05-05T05:19:20.606Z,21.40
2019-05-05T05:24:26.574Z,29.50
2019-05-05T05:29:34.394Z,26.57
2019-05-05T05:34:40.234Z,20.10
2019-05-05T05:39:54.979Z,22.40
2019-05-05T05:45:23.758Z,23.03
2019-05-05T05:50:33.933Z,24.83
2019-05-05T05:55:39.908Z,23.43
2019-05-05T06:00:45.958Z,16.53
2019-05-05T06:05:53.878Z,28.63
2019-05-05T06:10:59.531Z,25.40
2019-05-05T06:16:05.682Z,19.97
2019-05-05T06:21:13.594Z,17.63
2019-05-05T06:26:19.152Z,22.43
2019-05-05T06:31:24.960Z,21.00
2019-05-05T06:36:31.058Z,25.63
2019-05-05T06:41:54.639Z,21.83
2019-05-05T06:47:04.663Z,33.87
2019-05-05T06:52:10.896Z,26.70
2019-05-05T06:57:16.859Z,28.43
2019-05-05T07:02:23.777Z,27.90
2019-05-05T07:07:29.876Z,25.10
2019-05-05T07:12:35.814Z,18.77
2019-05-05T07:17:44.237Z,28.67
2019-05-05T07:23:01.341Z,21.97
2019-05-05T07:27:57.946Z,22.47
2019-05-05T07:33:04.633Z,24.93
2019-05-05T07:38:10.810Z,27.60
2019-05-05T07:43:17.014Z,19.57
2019-05-05T07:48:24.286Z,20.07
2019-05-05T07:53:30.713Z,22.40
2019-05-05T07:58:36.790Z,21.90
2019-05-05T08:03:44.658Z,19.77
2019-05-05T08:08:50.344Z,25.80
2019-05-05T08:13:56.315Z,19.27
2019-05-05T08:19:18.345Z,19.33
2019-05-05T08:24:49.315Z,19.63
2019-05-05T08:30:02.120Z,17.80
2019-05-05T08:35:07.537Z,18.13
2019-05-05T08:40:14.765Z,27.80
2019-05-05T08:45:26.473Z,21.67
2019-05-05T08:50:30.201Z,19.73
2019-05-05T08:55:36.236Z,15.47
2019-05-05T09:00:44.406Z,21.33
2019-05-05T09:05:50.059Z,17.57
2019-05-05T09:10:56.029Z,20.53
2019-05-05T09:16:03.774Z,16.53
2019-05-05T09:21:10.096Z,15.77
2019-05-05T09:26:28.675Z,9.80
2019-05-05T09:31:34.624Z,18.80
2019-05-05T09:36:40.930Z,10.20
2019-05-05T09:41:47.105Z,14.97
2019-05-05T09:46:53.823Z,16.47
2019-05-05T09:52:00.167Z,15.00
2019-05-05T09:57:06.352Z,10.83
2019-05-05T10:02:12.636Z,12.17
2019-05-05T10:07:18.612Z,11.33
2019-05-05T10:12:24.702Z,11.60
2019-05-05T10:17:30.706Z,6.70
2019-05-05T10:22:36.784Z,9.17
2019-05-05T10:27:47.524Z,8.50
2019-05-05T10:32:50.145Z,10.20
2019-05-05T10:37:56.135Z,10.63
2019-05-05T10:43:04.184Z,6.13
2019-05-05T10:48:09.898Z,7.50
2019-05-05T10:53:15.648Z,8.47
2019-05-05T10:58:21.713Z,5.83
2019-05-05T11:03:27.866Z,8.37
2019-05-05T11:08:34.793Z,11.67
2019-05-05T11:13:42.808Z,8.23
2019-05-05T11:18:48.651Z,10.10
2019-05-05T11:23:54.670Z,7.00
2019-05-05T11:29:04.133Z,8.23
2019-05-05T11:34:20.938Z,7.57
2019-05-05T11:39:27.723Z,6.00
2019-05-05T11:44:33.956Z,7.80
2019-05-05T11:49:40.362Z,5.77
2019-05-05T11:54:46.503Z,6.90
2019-05-05T11:59:54.069Z,8.80
2019-05-05T12:05:00.194Z,8.60
2019-05-05T12:10:08.144Z,12.63
2019-05-05T12:15:14.393Z,6.53
2019-05-05T12:20:27.423Z,7.33
2019-05-05T12:25:57.261Z,13.60
2019-05-05T12:31:05.397Z,8.53
2019-05-05T12:36:11.370Z,7.57
2019-05-05T12:41:20.766Z,9.30
2019-05-05T12:46:44.193Z,12.27
2019-05-05T12:51:50.370Z,14.97
2019-05-05T12:56:56.426Z,7.60
2019-05-05T13:02:03.890Z,9.30
2019-05-05T13:07:10.240Z,11.03
2019-05-05T13:12:16.215Z,14.17
2019-05-05T13:17:24.387Z,15.10
2019-05-05T13:22:38.864Z,12.47
2019-05-05T13:27:46.288Z,5.97
2019-05-05T13:32:54.414Z,12.47
2019-05-05T13:38:00.114Z,11.83
2019-05-05T13:43:06.420Z,10.13
2019-05-05T13:48:14.065Z,11.20
2019-05-05T13:53:20.206Z,9.27
2019-05-05T13:58:26.567Z,13.40
2019-05-05T14:03:34.139Z,12.50
2019-05-05T14:08:42.037Z,11.03
2019-05-05T14:13:48.652Z,13.87
2019-05-05T14:18:54.699Z,10.10
2019-05-05T14:24:22.927Z,11.50
2019-05-05T14:29:43.737Z,14.33
2019-05-05T14:34:55.984Z,10.47
2019-05-05T14:40:04.625Z,11.77
2019-05-05T14:45:10.988Z,7.50
2019-05-05T14:50:17.246Z,10.67
2019-05-05T14:55:25.453Z,8.63
2019-05-05T15:00:31.062Z,14.40
2019-05-05T15:05:51.378Z,12.37
2019-05-05T15:11:14.635Z,12.97
2019-05-05T15:16:20.674Z,13.90
2019-05-05T15:21:26.881Z,9.30
2019-05-05T15:26:34.440Z,7.77
2019-05-05T15:31:40.435Z,9.50
2019-05-05T15:36:46.406Z,12.83
2019-05-05T15:41:54.151Z,14.80
2019-05-05T15:46:59.824Z,9.40
2019-05-05T15:52:07.198Z,11.33
2019-05-05T15:57:14.939Z,11.37
2019-05-05T16:02:21.014Z,14.17
2019-05-05T16:07:27.086Z,10.43
2019-05-05T16:12:36.503Z,12.07
2019-05-05T16:17:53.326Z,12.10
2019-05-05T16:23:10.897Z,10.73
2019-05-05T16:28:16.895Z,10.93
2019-05-05T16:33:24.178Z,8.83
2019-05-05T16:38:30.249Z,8.83
2019-05-05T16:43:36.472Z,9.40
2019-05-05T16:48:43.919Z,12.47
2019-05-05T16:53:50.342Z,15.93
2019-05-05T16:58:57.442Z,18.23
2019-05-05T17:04:11.293Z,11.93
2019-05-05T17:09:11.614Z,13.30
2019-05-05T17:14:24.017Z,10.77
2019-05-05T17:19:36.910Z,9.60
2019-05-05T17:24:44.065Z,12.43
2019-05-05T17:29:50.267Z,13.77
2019-05-05T17:34:56.295Z,16.57
2019-05-05T17:40:12.516Z,9.60
2019-05-05T17:45:40.702Z,14.20
2019-05-05T17:51:04.470Z,11.27
2019-05-05T17:56:13.395Z,8.57
2019-05-05T18:01:19.187Z,9.13
2019-05-05T18:06:38.247Z,14.20
2019-05-05T18:12:18.266Z,14.13
2019-05-05T18:17:24.420Z,14.07
2019-05-05T18:22:30.487Z,10.47
2019-05-05T18:27:36.565Z,15.33
2019-05-05T18:32:42.749Z,6.60
2019-05-05T18:37:48.812Z,13.73
2019-05-05T18:42:55.659Z,6.87
2019-05-05T18:48:01.757Z,13.87
2019-05-05T18:53:07.855Z,18.50
2019-05-05T18:58:26.233Z,8.90
2019-05-05T19:03:25.515Z,13.97
2019-05-05T19:08:51.855Z,11.53
2019-05-05T19:13:47.824Z,18.17
2019-05-05T19:18:55.682Z,14.20
2019-05-05T19:24:03.720Z,18.30
2019-05-05T19:29:09.377Z,12.00
2019-05-05T19:34:15.497Z,10.70
2019-05-05T19:39:21.690Z,14.10
2019-05-05T19:44:28.039Z,17.10
2019-05-05T19:49:34.037Z,20.20
2019-05-05T19:54:40.250Z,17.83
2019-05-05T19:59:46.199Z,17.40
2019-05-05T20:04:53.678Z,24.23
2019-05-05T20:09:59.671Z,19.47
2019-05-05T20:15:07.733Z,18.83
2019-05-05T20:20:14.173Z,20.50
2019-05-05T20:25:20.383Z,20.07
2019-05-05T20:30:26.548Z,16.37
2019-05-05T20:35:45.138Z,16.33
2019-05-05T20:41:08.793Z,19.73
2019-05-05T20:46:14.875Z,15.97
2019-05-05T20:51:20.971Z,16.83
2019-05-05T20:56:27.066Z,16.77
2019-05-05T21:01:34.122Z,20.20
2019-05-05T21:06:40.168Z,19.47
2019-05-05T21:11:46.290Z,19.10
2019-05-05T21:16:55.022Z,14.53
2019-05-05T21:22:04.229Z,21.20
2019-05-05T21:27:10.458Z,13.40
2019-05-05T21:32:16.319Z,12.77
2019-05-05T21:37:22.299Z,14.83
2019-05-05T21:42:28.385Z,11.57
2019-05-05T21:47:34.611Z,11.30
2019-05-05T21:52:45.544Z,11.13
2019-05-05T21:58:10.419Z,12.00
2019-05-05T22:03:23.572Z,9.23
2019-05-05T22:08:29.178Z,11.97
2019-05-05T22:13:36.625Z,8.10
2019-05-05T22:18:44.734Z,9.10
2019-05-05T22:24:07.918Z,11.87
2019-05-05T22:29:16.824Z,13.57
2019-05-05T22:34:21.465Z,12.03
2019-05-05T22:39:27.165Z,12.97
2019-05-05T22:44:33.850Z,13.33
2019-05-05T22:49:40.440Z,12.67
2019-05-05T22:54:46.300Z,8.70
2019-05-05T22:59:54.129Z,10.57
2019-05-05T23:05:05.485Z,13.13
2019-05-05T23:10:13.584Z,9.47
2019-05-05T23:15:19.553Z,12.63
2019-05-05T23:21:16.009Z,11.67
2019-05-05T23:26:22.956Z,11.00
2019-05-05T23:31:28.961Z,8.43
2019-05-05T23:36:34.941Z,11.03
2019-05-05T23:41:40.867Z,10.77
2019-05-05T23:46:46.750Z,6.83
2019-05-05T23:51:54.008Z,12.87
2019-05-05T23:57:00.237Z,8.60
